createdAt,value
2023-05-14T00:00:20.332Z,96327.00
2023-05-14T00:04:24.840Z,96331.00
2023-05-14T00:08:28.277Z,96329.00
2023-05-14T00:12:33.405Z,96329.00
2023-05-14T00:16:36.740Z,96325.00
2023-05-14T00:20:44.969Z,96318.00
2023-05-14T00:24:52.297Z,96316.00
2023-05-14T00:28:55.973Z,96314.00
2023-05-14T00:33:02.216Z,96309.00
2023-05-14T00:37:09.335Z,96310.00
2023-05-14T00:41:12.386Z,96309.00
2023-05-14T00:45:15.471Z,96311.00
2023-05-14T00:49:21.800Z,96306.00
2023-05-14T00:53:26.374Z,96302.00
2023-05-14T00:57:29.414Z,96304.00
2023-05-14T01:01:39.450Z,96311.00
2023-05-14T01:05:54.970Z,96306.00
2023-05-14T01:10:07.385Z,96300.00
2023-05-14T01:14:24.506Z,96306.00
2023-05-14T01:18:30.907Z,96301.00
2023-05-14T01:22:35.318Z,96291.00
2023-05-14T01:26:41.142Z,96296.00
2023-05-14T01:30:49.367Z,96287.00
2023-05-14T01:34:57.914Z,96291.00
2023-05-14T01:39:09.695Z,96289.00
2023-05-14T01:43:12.934Z,96278.00
2023-05-14T01:47:18.890Z,96276.00
2023-05-14T01:51:23.183Z,96279.00
2023-05-14T01:55:32.192Z,96280.00
2023-05-14T01:59:36.769Z,96277.00
2023-05-14T02:03:40.937Z,96278.00
2023-05-14T02:07:47.113Z,96279.00
2023-05-14T02:11:54.087Z,96272.00
2023-05-14T02:15:57.126Z,96279.00
2023-05-14T02:20:03.868Z,96274.00
2023-05-14T02:24:09.326Z,96264.00
2023-05-14T02:28:13.824Z,96266.00
2023-05-14T02:32:18.287Z,96266.00
2023-05-14T02:36:24.341Z,96262.00
2023-05-14T02:40:34.663Z,96253.00
2023-05-14T02:44:39.157Z,96266.00
2023-05-14T02:48:45.292Z,96249.00
2023-05-14T02:52:48.432Z,96248.00
2023-05-14T02:56:53.176Z,96242.00
2023-05-14T03:05:17.628Z,96243.00
2023-05-14T03:09:20.916Z,96238.00
2023-05-14T03:13:28.677Z,96242.00
2023-05-14T03:17:32.338Z,96238.00
2023-05-14T03:21:36.884Z,96233.00
2023-05-14T03:25:45.178Z,96236.00
2023-05-14T03:29:48.424Z,96233.00
2023-05-14T03:33:52.083Z,96227.00
2023-05-14T03:37:59.360Z,96230.00
2023-05-14T03:42:02.649Z,96231.00
2023-05-14T03:46:05.874Z,96232.00
2023-05-14T03:50:12.793Z,96221.00
2023-05-14T03:54:17.465Z,96223.00
2023-05-14T03:58:20.478Z,96223.00
2023-05-14T04:02:28.340Z,96217.00
2023-05-14T04:06:31.671Z,96221.00
2023-05-14T04:10:36.251Z,96211.00
2023-05-14T04:14:43.558Z,96219.00
2023-05-14T04:18:48.567Z,96213.00
2023-05-14T04:22:51.894Z,96217.00
2023-05-14T04:26:58.785Z,96214.00
2023-05-14T04:31:02.027Z,96208.00
2023-05-14T04:35:06.017Z,96210.00
2023-05-14T04:39:10.069Z,96214.00
2023-05-14T04:43:15.970Z,96216.00
2023-05-14T04:47:22.298Z,96212.00
2023-05-14T04:51:31.731Z,96212.00
2023-05-14T04:55:34.759Z,96209.00
2023-05-14T04:59:40.999Z,96215.00
2023-05-14T05:03:44.033Z,96212.00
2023-05-14T05:07:47.283Z,96221.00
2023-05-14T05:11:51.491Z,96228.00
2023-05-14T05:15:57.236Z,96228.00
2023-05-14T05:20:04.889Z,96233.00
2023-05-14T05:24:09.594Z,96231.00
2023-05-14T05:28:17.282Z,96231.00
2023-05-14T05:32:24.738Z,96223.00
2023-05-14T05:36:28.804Z,96223.00
2023-05-14T05:40:41.436Z,96221.00
2023-05-14T05:44:44.449Z,96214.00
2023-05-14T05:48:53.633Z,96229.00
2023-05-14T05:52:56.900Z,96216.00
2023-05-14T05:57:05.326Z,96223.00
2023-05-14T06:01:08.638Z,96228.00
2023-05-14T06:05:13.385Z,96233.00
2023-05-14T06:09:18.725Z,96231.00
2023-05-14T06:13:21.735Z,96230.00
2023-05-14T06:17:27.204Z,96233.00
2023-05-14T06:21:31.630Z,96232.00
2023-05-14T06:25:36.089Z,96239.00
2023-05-14T06:29:40.476Z,96230.00
2023-05-14T06:33:43.690Z,96236.00
2023-05-14T06:37:48.149Z,96232.00
2023-05-14T06:41:54.094Z,96232.00
2023-05-14T06:45:57.496Z,96229.00
2023-05-14T06:50:02.012Z,96223.00
2023-05-14T06:54:08.250Z,96229.00
2023-05-14T06:58:11.285Z,96228.00
2023-05-14T07:02:14.261Z,96231.00
2023-05-14T07:06:19.475Z,96231.00
2023-05-14T07:10:26.432Z,96228.00
2023-05-14T07:14:29.817Z,96230.00
2023-05-14T07:18:32.906Z,96235.00
2023-05-14T07:22:37.081Z,96227.00
2023-05-14T07:26:42.149Z,96237.00
2023-05-14T07:30:46.368Z,96221.00
2023-05-14T07:39:02.259Z,96215.00
2023-05-14T07:43:09.611Z,96207.00
2023-05-14T07:47:12.653Z,96212.00
2023-05-14T07:51:16.840Z,96214.00
2023-05-14T07:55:20.076Z,96212.00
2023-05-14T07:59:26.826Z,96207.00
2023-05-14T08:03:34.361Z,96204.00
2023-05-14T08:07:37.757Z,96202.00
2023-05-14T08:11:42.498Z,96206.00
2023-05-14T08:15:48.607Z,96199.00
2023-05-14T08:19:59.047Z,96198.00
2023-05-14T08:24:02.086Z,96193.00
2023-05-14T08:28:05.521Z,96189.00
2023-05-14T08:32:22.585Z,96181.00
2023-05-14T08:36:26.948Z,96168.00
2023-05-14T08:40:31.347Z,96167.00
2023-05-14T08:44:40.942Z,96150.00
2023-05-14T08:48:52.594Z,96156.00
2023-05-14T08:52:55.699Z,96160.00
2023-05-14T08:56:59.138Z,96168.00
2023-05-14T09:01:04.788Z,96161.00
2023-05-14T09:05:12.534Z,96158.00
2023-05-14T09:09:18.618Z,96158.00
2023-05-14T09:13:21.701Z,96147.00
2023-05-14T09:17:27.502Z,96148.00
2023-05-14T09:21:33.519Z,96151.00
2023-05-14T09:25:36.944Z,96151.00
2023-05-14T09:29:39.942Z,96150.00
2023-05-14T09:33:43.253Z,96156.00
2023-05-14T09:37:49.522Z,96156.00
2023-05-14T09:41:53.288Z,96145.00
2023-05-14T09:45:58.703Z,96141.00
2023-05-14T09:50:03.804Z,96136.00
2023-05-14T09:54:09.894Z,96134.00
2023-05-14T09:58:14.420Z,96139.00
2023-05-14T10:02:24.734Z,96137.00
2023-05-14T10:06:31.958Z,96132.00
2023-05-14T10:10:38.734Z,96132.00
2023-05-14T10:14:46.114Z,96122.00
2023-05-14T10:18:57.166Z,96130.00
2023-05-14T10:23:03.618Z,96125.00
2023-05-14T10:27:09.633Z,96119.00
2023-05-14T10:31:13.910Z,96117.00
2023-05-14T10:35:20.386Z,96119.00
2023-05-14T10:39:25.203Z,96111.00
2023-05-14T10:43:33.216Z,96107.00
2023-05-14T10:47:38.154Z,96110.00
2023-05-14T10:51:42.174Z,96100.00
2023-05-14T10:55:46.143Z,96101.00
2023-05-14T10:59:53.430Z,96097.00
2023-05-14T11:04:07.603Z,96097.00
2023-05-14T11:08:14.374Z,96097.00
2023-05-14T11:12:18.221Z,96099.00
2023-05-14T11:16:24.942Z,96097.00
2023-05-14T11:20:29.360Z,96086.00
2023-05-14T11:24:34.181Z,96080.00
2023-05-14T11:28:41.367Z,96085.00
2023-05-14T11:32:52.055Z,96082.00
2023-05-14T11:36:55.115Z,96088.00
2023-05-14T11:41:04.997Z,96073.00
2023-05-14T11:45:14.759Z,96065.00
2023-05-14T11:49:26.017Z,96066.00
2023-05-14T11:53:34.728Z,96066.00
2023-05-14T11:57:39.322Z,96056.00
2023-05-14T12:01:50.652Z,96056.00
2023-05-14T12:05:59.057Z,96049.00
2023-05-14T12:10:05.884Z,96036.00
2023-05-14T12:14:17.579Z,96046.00
2023-05-14T12:18:28.001Z,96030.00
2023-05-14T12:22:32.458Z,96025.00
2023-05-14T12:26:38.620Z,96024.00
2023-05-14T12:30:42.171Z,96017.00
2023-05-14T12:34:47.450Z,96019.00
2023-05-14T12:39:02.338Z,96023.00
2023-05-14T12:43:09.576Z,96009.00
2023-05-14T12:47:12.631Z,96014.00
2023-05-14T12:51:15.904Z,96002.00
2023-05-14T12:55:20.408Z,96007.00
2023-05-14T12:59:23.434Z,96000.00
2023-05-14T13:03:29.489Z,95997.00
2023-05-14T13:07:38.958Z,95998.00
2023-05-14T13:11:49.166Z,95996.00
2023-05-14T13:15:55.640Z,95991.00
2023-05-14T13:19:58.983Z,95985.00
2023-05-14T13:24:03.561Z,95983.00
2023-05-14T13:28:10.063Z,95986.00
2023-05-14T13:32:13.100Z,95981.00
2023-05-14T13:36:18.214Z,95987.00
2023-05-14T13:40:22.656Z,95982.00
2023-05-14T13:44:27.069Z,95974.00
2023-05-14T13:48:34.560Z,95966.00
2023-05-14T13:52:40.276Z,95965.00
2023-05-14T13:56:43.601Z,95960.00
2023-05-14T14:00:48.010Z,95959.00
2023-05-14T14:04:54.441Z,95957.00
2023-05-14T14:08:57.426Z,95958.00
2023-05-14T14:13:01.770Z,95970.00
2023-05-14T14:17:09.141Z,95964.00
2023-05-14T14:21:18.030Z,95966.00
2023-05-14T14:25:21.730Z,95975.00
2023-05-14T14:29:27.700Z,95981.00
2023-05-14T14:33:34.476Z,95979.00
2023-05-14T14:37:37.811Z,95993.00
2023-05-14T14:41:44.558Z,95987.00
2023-05-14T14:45:49.225Z,96001.00
2023-05-14T14:49:56.763Z,95992.00
2023-05-14T14:53:59.783Z,96002.00
2023-05-14T14:58:03.072Z,95994.00
2023-05-14T15:02:06.525Z,96001.00
2023-05-14T15:06:11.294Z,96009.00
2023-05-14T15:10:14.426Z,96009.00
2023-05-14T15:14:23.090Z,95999.00
2023-05-14T15:18:30.068Z,96002.00
2023-05-14T15:22:35.841Z,95993.00
2023-05-14T15:26:40.752Z,95994.00
2023-05-14T15:30:43.758Z,95999.00
2023-05-14T15:34:46.707Z,95991.00
2023-05-14T15:38:54.934Z,95988.00
2023-05-14T15:43:03.278Z,95979.00
2023-05-14T15:47:07.261Z,95990.00
2023-05-14T15:51:11.842Z,95988.00
2023-05-14T15:55:20.723Z,95995.00
2023-05-14T15:59:24.663Z,95998.00
2023-05-14T16:03:31.918Z,95993.00
2023-05-14T16:07:37.450Z,95993.00
2023-05-14T16:11:41.888Z,95995.00
2023-05-14T16:15:45.082Z,95992.00
2023-05-14T16:19:53.457Z,95996.00
2023-05-14T16:24:01.562Z,95993.00
2023-05-14T16:28:14.235Z,96000.00
2023-05-14T16:32:17.411Z,95987.00
2023-05-14T16:36:20.590Z,95983.00
2023-05-14T16:40:24.147Z,95984.00
2023-05-14T16:44:30.574Z,95983.00
2023-05-14T16:48:33.660Z,95981.00
2023-05-14T16:52:38.284Z,95976.00
2023-05-14T16:56:48.322Z,95978.00
2023-05-14T17:00:54.026Z,95964.00
2023-05-14T17:05:00.299Z,95970.00
2023-05-14T17:09:07.152Z,95977.00
2023-05-14T17:13:10.292Z,95973.00
2023-05-14T17:17:14.680Z,95976.00
2023-05-14T17:21:17.816Z,95965.00
2023-05-14T17:25:23.781Z,95975.00
2023-05-14T17:29:29.326Z,95965.00
2023-05-14T17:33:33.795Z,95975.00
2023-05-14T17:37:44.841Z,95975.00
2023-05-14T17:41:47.836Z,95978.00
2023-05-14T17:45:54.440Z,95971.00
2023-05-14T17:49:59.908Z,95970.00
2023-05-14T17:54:02.870Z,95966.00
2023-05-14T17:58:08.556Z,95961.00
2023-05-14T18:02:14.791Z,95959.00
2023-05-14T18:06:19.335Z,95955.00
2023-05-14T18:10:22.413Z,95956.00
2023-05-14T18:14:25.497Z,95949.00
2023-05-14T18:18:34.177Z,95942.00
2023-05-14T18:22:38.596Z,95950.00
2023-05-14T18:26:42.086Z,95941.00
2023-05-14T18:30:47.274Z,95933.00
2023-05-14T18:34:51.916Z,95939.00
2023-05-14T18:38:56.334Z,95937.00
2023-05-14T18:42:59.845Z,95933.00
2023-05-14T18:47:08.256Z,95933.00
2023-05-14T18:51:12.444Z,95933.00
2023-05-14T18:55:18.617Z,95932.00
2023-05-14T18:59:21.687Z,95933.00
2023-05-14T19:03:28.362Z,95936.00
2023-05-14T19:07:35.180Z,95935.00
2023-05-14T19:11:39.588Z,95937.00
2023-05-14T19:15:42.730Z,95940.00
2023-05-14T19:19:46.288Z,95940.00
2023-05-14T19:23:49.325Z,95938.00
2023-05-14T19:27:55.302Z,95945.00
2023-05-14T19:31:58.640Z,95944.00
2023-05-14T19:36:04.482Z,95951.00
2023-05-14T19:40:09.059Z,95945.00
2023-05-14T19:44:13.661Z,95939.00
2023-05-14T19:48:21.296Z,95941.00
2023-05-14T19:52:25.332Z,95944.00
2023-05-14T19:56:31.629Z,95940.00
2023-05-14T20:00:41.795Z,95943.00
2023-05-14T20:04:46.214Z,95940.00
2023-05-14T20:08:49.556Z,95940.00
2023-05-14T20:12:55.144Z,95940.00
2023-05-14T20:17:02.659Z,95931.00
2023-05-14T20:21:07.482Z,95934.00
2023-05-14T20:25:16.549Z,95939.00
2023-05-14T20:29:19.549Z,95944.00
2023-05-14T20:33:24.103Z,95937.00
2023-05-14T20:37:27.717Z,95938.00
2023-05-14T20:41:31.373Z,95930.00
2023-05-14T20:45:34.473Z,95936.00
2023-05-14T20:49:40.900Z,95937.00
2023-05-14T20:53:43.887Z,95931.00
2023-05-14T20:57:50.743Z,95932.00
2023-05-14T21:01:53.923Z,95925.00
2023-05-14T21:05:58.423Z,95927.00
2023-05-14T21:10:01.900Z,95926.00
2023-05-14T21:14:04.919Z,95930.00
2023-05-14T21:18:08.070Z,95926.00
2023-05-14T21:22:14.520Z,95924.00
2023-05-14T21:26:22.296Z,95921.00
2023-05-14T21:30:25.538Z,95922.00
2023-05-14T21:34:29.808Z,95918.00
2023-05-14T21:38:40.991Z,95923.00
2023-05-14T21:42:44.416Z,95925.00
2023-05-14T21:46:48.182Z,95923.00
2023-05-14T21:50:51.180Z,95920.00
2023-05-14T21:54:57.416Z,95917.00
2023-05-14T21:59:00.694Z,95914.00
2023-05-14T22:03:06.144Z,95915.00
2023-05-14T22:07:13.429Z,95919.00
2023-05-14T22:11:19.870Z,95923.00
2023-05-14T22:15:23.093Z,95914.00
2023-05-14T22:19:26.897Z,95900.00
2023-05-14T22:23:29.915Z,95899.00
2023-05-14T22:27:37.361Z,95891.00
2023-05-14T22:31:40.518Z,95889.00
2023-05-14T22:35:44.051Z,95893.00
2023-05-14T22:39:47.057Z,95898.00
2023-05-14T22:43:52.608Z,95884.00
2023-05-14T22:47:55.681Z,95885.00
2023-05-14T22:52:07.992Z,95886.00
2023-05-14T22:56:13.558Z,95878.00
2023-05-14T23:00:18.813Z,95876.00
2023-05-14T23:04:26.887Z,95873.00
2023-05-14T23:08:29.921Z,95869.00
2023-05-14T23:12:35.426Z,95865.00
2023-05-14T23:16:44.839Z,95858.00
2023-05-14T23:20:52.127Z,95852.00
2023-05-14T23:24:55.669Z,95844.00
2023-05-14T23:28:58.639Z,95844.00
2023-05-14T23:33:03.335Z,95842.00
2023-05-14T23:37:06.699Z,95836.00
2023-05-14T23:41:10.154Z,95834.00
2023-05-14T23:45:16.325Z,95824.00
2023-05-14T23:49:23.775Z,95823.00
2023-05-14T23:53:26.849Z,95816.00
2023-05-14T23:57:29.882Z,95810.00
